MSC Susanna — 3ECU4 — position and weather

sailwx.info

Track history (hours):
 
Tides and Currents Weather Stations Pressure Air Temp Water Temp Dewpoint Dewpoint Depression Visibility Wind Speed Wind Dir Waves Ship Positions

MSC Susanna

Last reported at 2016-Jul-25 09:31 UTC. Time now 2016-Jul-25 09:57 UTC.
Position N 50°05' W 002°25'.

Length 337 m; draft 11.9 m.

Type: Ship (hazmat cat A). MMSI: 371466000.

Date/timePositionNaut miles runAvg speedWind from/ knotsBaromVisibWave heightAir tempDewpointWater temp
2016-Jul-25 09:31N 50°05' W 002°25'6416.1
2016-Jul-25 05:33N 49°43' W 000°52'1615.8
2016-Jul-25 04:33N 49°38' W 000°29'1514.8
2016-Jul-25 03:33N 49°32' W 000°08'1211.6
2016-Jul-25 02:33N 49°28' E 000°08'0 0.1
2016-Jul-25 01:33N 49°28' E 000°09'0 0.0
2016-Jul-25 00:33N 49°28' E 000°08'0 0.0
2016-Jul-24 23:33N 49°28' E 000°09'0 0.0
2016-Jul-24 22:33N 49°28' E 000°08'0 0.0
2016-Jul-24 21:33N 49°28' E 000°09'0 0.0
2016-Jul-24 20:33N 49°28' E 000°09'0 0.0
2016-Jul-24 19:33N 49°28' E 000°09'0 0.4
2016-Jul-24 18:33N 49°27' E 000°09'1110.9
2016-Jul-24 17:33N 49°31' W 000°07'6 6.1
2016-Jul-24 16:34N 49°37' W 000°12'8 7.7
2016-Jul-24 15:33N 49°44' W 000°12'9 8.6
2016-Jul-24 14:33N 49°53' W 000°14'9 8.6
2016-Jul-24 13:33N 50°01' W 000°15'8 7.8
2016-Jul-24 12:34N 50°09' W 000°13'7 7.0
2016-Jul-24 11:34N 50°16' W 000°10'7 7.3
2016-Jul-24 10:33N 50°23' W 000°09'8 7.5
2016-Jul-24 09:32N 50°28' W 000°00'1212.1
2016-Jul-24 08:33N 50°33' E 000°17'9 9.3
2016-Jul-24 07:33N 50°36' E 000°31'10 9.6
2016-Jul-24 06:30N 50°41' E 000°45'1111.0
2016-Jul-24 05:30N 50°47' E 000°60'1310.8
2016-Jul-24 04:18N 50°54' E 001°17'7 9.2
2016-Jul-24 03:34N 50°59' E 001°24'10 9.6
2016-Jul-24 02:33N 51°06' E 001°34'1211.5
2016-Jul-24 01:34N 51°15' E 001°47'8 7.8
2016-Jul-24 00:34N 51°21' E 001°54'15 7.4
2016-Jul-23 22:34N 51°21' E 002°18'1110.5
2016-Jul-23 21:34N 51°23' E 002°34'1212.1
2016-Jul-23 20:33N 51°25' E 002°53'1918.7
2016-Jul-23 19:33N 51°25' E 003°23'1313.0
2016-Jul-23 18:34N 51°23' E 003°44'1211.6
2016-Jul-23 17:34N 51°23' E 004°03'10 9.6
2016-Jul-23 16:34N 51°19' E 004°16'1 0.5
2016-Jul-23 15:31N 51°18' E 004°16'0 0.0
2016-Jul-23 14:31N 51°18' E 004°16'0 0.0
2016-Jul-23 13:31N 51°18' E 004°16'0 0.0
2016-Jul-23 12:31N 51°18' E 004°16'0 0.0
2016-Jul-23 11:31N 51°18' E 004°16'0 0.0
2016-Jul-23 10:30N 51°18' E 004°16'0 0.0
2016-Jul-23 09:29N 51°18' E 004°16'0 0.0
2016-Jul-23 08:32N 51°18' E 004°16'0 0.0
2016-Jul-23 07:32N 51°18' E 004°16'0 0.0
2016-Jul-23 06:32N 51°18' E 004°16'0 0.0
2016-Jul-23 04:32N 51°18' E 004°16'0 0.0
2016-Jul-23 03:32N 51°18' E 004°16'0 0.0
2016-Jul-23 02:32N 51°18' E 004°16'0 0.0
2016-Jul-23 01:32N 51°18' E 004°16'0 0.0
2016-Jul-23 00:32N 51°18' E 004°16'0 0.0
2016-Jul-22 23:31N 51°18' E 004°16'0 0.0
2016-Jul-22 22:31N 51°18' E 004°16'0 0.0
2016-Jul-22 21:32N 51°18' E 004°16'0 0.0
2016-Jul-22 20:32N 51°18' E 004°16'0 0.0
2016-Jul-22 19:32N 51°18' E 004°16'0 0.0
2016-Jul-22 18:32N 51°18' E 004°16'0 0.0
2016-Jul-22 17:32N 51°18' E 004°16'0 0.0
2016-Jul-22 16:32N 51°18' E 004°16'0 0.0
2016-Jul-22 15:32N 51°18' E 004°16'0 0.0
2016-Jul-22 14:32N 51°18' E 004°16'0 0.0
2016-Jul-22 13:29N 51°18' E 004°16'0 0.0
2016-Jul-22 12:32N 51°18' E 004°16'0 0.0
2016-Jul-22 11:32N 51°18' E 004°16'0 0.0
2016-Jul-22 10:32N 51°18' E 004°16'0 0.0
2016-Jul-22 09:32N 51°18' E 004°16'0 0.0
2016-Jul-22 08:32N 51°18' E 004°16'0 0.0
2016-Jul-22 07:32N 51°18' E 004°16'0 0.0
2016-Jul-22 04:31N 51°18' E 004°16'0 0.0
2016-Jul-22 03:31N 51°18' E 004°16'0 0.0
2016-Jul-22 02:28N 51°18' E 004°16'0 0.0
2016-Jul-22 01:31N 51°18' E 004°16'0 0.0
2016-Jul-22 00:33N 51°18' E 004°16'2 2.3
2016-Jul-21 23:33N 51°20' E 004°16'1110.8
2016-Jul-21 22:33N 51°26' E 004°01'1211.6
2016-Jul-21 21:33N 51°23' E 003°43'10 9.6
2016-Jul-21 20:33N 51°25' E 003°28'1616.2
2016-Jul-21 19:33N 51°25' E 003°02'1414.2
2016-Jul-21 18:34N 51°38' E 003°11'1312.5
2016-Jul-21 17:33N 51°50' E 003°17'1515.4
2016-Jul-21 16:33N 52°05' E 003°21'1716.9
2016-Jul-21 15:33N 52°22' E 003°27'1716.7
2016-Jul-21 14:33N 52°38' E 003°31'1917.9
2016-Jul-21 13:31N 52°52' E 003°50'2118.8
2016-Jul-21 12:24N 53°07' E 004°16'2319.0
2016-Jul-21 11:13N 53°26' E 004°35'1419.5
2016-Jul-21 10:29N 53°33' E 004°56'1819.5
2016-Jul-21 09:33N 53°39' E 005°25'1818.4
2016-Jul-21 08:33N 53°45' E 005°54'1918.7
2016-Jul-21 07:33N 53°51' E 006°24'1919.0
2016-Jul-21 06:33N 53°54' E 006°56'2020.4
2016-Jul-21 05:33N 53°60' E 007°30'1918.7
2016-Jul-21 04:33N 54°01' E 008°01'1818.4
2016-Jul-21 03:33N 53°58' E 008°32'1515.5
2016-Jul-21 02:34N 53°51' E 008°55'1211.6
2016-Jul-21 01:34N 53°53' E 009°15'1212.4
2016-Jul-21 00:34N 53°43' E 009°28'1010.2
2016-Jul-20 23:34N 53°35' E 009°38'9 8.7
2016-Jul-20 22:34N 53°33' E 009°52'2 1.5
2016-Jul-20 21:33N 53°32' E 009°55'0 0.0
2016-Jul-20 20:33N 53°32' E 009°55'0 0.0
2016-Jul-20 19:33N 53°32' E 009°55'0 0.0
2016-Jul-20 18:33N 53°32' E 009°55'0 0.0
2016-Jul-20 17:33N 53°32' E 009°55'0 0.0
2016-Jul-20 16:33N 53°32' E 009°55'0 0.0
2016-Jul-20 15:33N 53°32' E 009°55'0 0.0
2016-Jul-20 14:33N 53°32' E 009°55'0 0.0
2016-Jul-20 13:33N 53°32' E 009°55'0 0.0
2016-Jul-20 12:33N 53°32' E 009°55'0 0.0
2016-Jul-20 11:33N 53°32' E 009°55'0 0.0
2016-Jul-20 10:33N 53°32' E 009°55'0 0.0
2016-Jul-20 09:33N 53°32' E 009°55'0 0.0
2016-Jul-20 08:33N 53°32' E 009°55'0 0.0
2016-Jul-20 07:33N 53°32' E 009°55'0 0.0
2016-Jul-20 06:33N 53°32' E 009°55'0 0.0
2016-Jul-20 05:33N 53°32' E 009°55'0 0.0
2016-Jul-20 04:33N 53°32' E 009°55'0 0.0
2016-Jul-20 03:33N 53°32' E 009°55'0 0.0
2016-Jul-20 02:33N 53°32' E 009°55'0 0.0
2016-Jul-20 01:33N 53°32' E 009°55'0 0.0
2016-Jul-20 00:32N 53°32' E 009°55'0 0.0
2016-Jul-19 23:32N 53°32' E 009°55'0 0.0
2016-Jul-19 22:32N 53°32' E 009°55'0 0.0
2016-Jul-19 21:32N 53°32' E 009°55'0 0.0
2016-Jul-19 20:32N 53°32' E 009°55'0 0.0
2016-Jul-19 19:32N 53°32' E 009°55'0 0.0
2016-Jul-19 18:32N 53°32' E 009°55'0 0.0
2016-Jul-19 17:32N 53°32' E 009°55'0 0.0
2016-Jul-19 16:32N 53°32' E 009°55'0 0.0
2016-Jul-19 15:32N 53°32' E 009°55'0 0.0
2016-Jul-19 14:32N 53°32' E 009°55'0 0.0
2016-Jul-19 13:32N 53°32' E 009°55'2 2.2
2016-Jul-19 12:33N 53°33' E 009°51'1010.2
2016-Jul-19 11:34N 53°36' E 009°35'1313.5
2016-Jul-19 10:33N 53°48' E 009°23'1211.5
2016-Jul-19 09:33N 53°52' E 009°05'1313.1
2016-Jul-19 08:33N 53°53' E 008°43'1414.1
2016-Jul-19 07:33N 53°59' E 008°22'3511.7
2016-Jul-19 04:33N 53°53' E 007°23'1414.0
2016-Jul-19 03:33N 53°50' E 007°00'1313.1
2016-Jul-19 02:34N 53°47' E 006°39'9 9.0
2016-Jul-19 01:34N 53°46' E 006°24'9 9.2
2016-Jul-19 00:34N 53°43' E 006°09'9 9.2
2016-Jul-18 23:33N 53°40' E 005°54'10 9.5
2016-Jul-18 22:34N 53°37' E 005°39'1010.0
2016-Jul-18 21:34N 53°33' E 005°23'1110.6
2016-Jul-18 20:34N 53°29' E 005°07'1110.5
2016-Jul-18 19:34N 53°25' E 004°50'9 9.3
2016-Jul-18 18:34N 53°18' E 004°40'1010.5
2016-Jul-18 17:34N 53°09' E 004°31'1110.6
2016-Jul-18 16:33N 53°00' E 004°22'1111.0
2016-Jul-18 15:34N 52°50' E 004°15'1010.5
2016-Jul-18 14:34N 52°42' E 004°04'1010.4
2016-Jul-18 13:34N 52°35' E 003°51'1010.3
2016-Jul-18 12:34N 52°28' E 003°40'10 9.8
2016-Jul-18 11:33N 52°21' E 003°28'9 9.1
2016-Jul-18 10:34N 52°14' E 003°18'8 8.4
2016-Jul-18 09:33N 52°08' E 003°09'8 7.8
2016-Jul-18 08:34N 52°02' E 002°60'7 7.4
2016-Jul-18 07:33N 51°58' E 002°50'8 8.5
2016-Jul-18 06:33N 51°56' E 002°37'9 9.2
2016-Jul-18 05:34N 51°54' E 002°22'10 9.8
2016-Jul-18 04:33N 51°52' E 002°07'1010.2
2016-Jul-18 03:34N 51°48' E 001°51'1010.1
2016-Jul-18 02:34N 51°52' E 001°36'1211.6
2016-Jul-18 01:34N 51°56' E 001°19'2 2.1
2016-Jul-18 00:34N 51°58' E 001°17'0 0.0
2016-Jul-17 23:34N 51°58' E 001°17'0 0.0
2016-Jul-17 22:34N 51°58' E 001°17'0 0.0
2016-Jul-17 21:34N 51°58' E 001°17'0 0.0
2016-Jul-17 20:34N 51°58' E 001°17'0 0.0
2016-Jul-17 19:33N 51°58' E 001°17'0 0.0
2016-Jul-17 18:34N 51°58' E 001°17'0 0.0
2016-Jul-17 17:34N 51°58' E 001°17'0 0.0
2016-Jul-17 16:34N 51°58' E 001°17'0 0.0
2016-Jul-17 15:34N 51°58' E 001°17'0 0.0
2016-Jul-17 14:34N 51°58' E 001°17'0 0.0
2016-Jul-17 13:34N 51°58' E 001°17'0 0.0
2016-Jul-17 12:34N 51°58' E 001°17'0 0.0
2016-Jul-17 11:34N 51°58' E 001°17'0 0.0
2016-Jul-17 10:34N 51°58' E 001°17'0 0.0
2016-Jul-17 09:34N 51°58' E 001°17'0 0.0
2016-Jul-17 08:34N 51°58' E 001°17'0 0.0
2016-Jul-17 07:34N 51°58' E 001°17'0 0.0
2016-Jul-17 06:34N 51°58' E 001°17'0 0.0
2016-Jul-17 04:34N 51°58' E 001°17'0 0.0
2016-Jul-17 03:33N 51°58' E 001°17'0 0.0
2016-Jul-17 02:34N 51°58' E 001°17'0 0.0
2016-Jul-17 01:33N 51°58' E 001°17'0 0.0
2016-Jul-17 00:34N 51°58' E 001°17'0 0.0
2016-Jul-16 23:34N 51°58' E 001°17'0 0.0
2016-Jul-16 22:34N 51°58' E 001°17'0 0.0
2016-Jul-16 21:34N 51°58' E 001°17'0 0.0
2016-Jul-16 20:34N 51°58' E 001°17'1 1.1
2016-Jul-16 19:34N 51°57' E 001°19'10 9.6
2016-Jul-16 18:33N 51°55' E 001°34'9 9.5
2016-Jul-16 17:33N 51°51' E 001°48'1212.4
2016-Jul-16 16:33N 51°38' E 001°49'1413.8
2016-Jul-16 15:34N 51°25' E 001°46'1515.1
2016-Jul-16 14:34N 51°10' E 001°41'1313.0
2016-Jul-16 13:33N 50°59' E 001°30'1717.1
2016-Jul-16 12:33N 50°43' E 001°20'3516.8
2016-Jul-16 10:27N 50°25' E 000°32'1517.1
2016-Jul-16 09:33N 50°22' E 000°09'1717.4
2016-Jul-16 08:33N 50°17' W 000°18'1817.9
2016-Jul-16 07:33N 50°12' W 000°44'1918.8
2016-Jul-16 06:33N 50°08' W 001°13'3919.7
2016-Jul-16 04:33N 49°57' W 002°12'1919.0
2016-Jul-16 03:33N 49°51' W 002°40'1818.2
2016-Jul-16 02:33N 49°44' W 003°06'1818.1
2016-Jul-16 01:33N 49°35' W 003°30'1818.0
2016-Jul-16 00:33N 49°25' W 003°54'1817.9
2016-Jul-15 23:33N 49°16' W 004°17'1817.6
2016-Jul-15 22:32N 49°07' W 004°41'1717.4
2016-Jul-15 21:33N 48°59' W 005°04'1717.1
2016-Jul-15 20:33N 48°51' W 005°27'1716.8
2016-Jul-15 19:33N 48°39' W 005°44'3316.7
2016-Jul-15 17:33N 48°09' W 006°06'1716.7
2016-Jul-15 16:31N 47°53' W 006°18'  
Track history (hours):
 
Tides and Currents Weather Stations Pressure Air Temp Water Temp Dewpoint Dewpoint Depression Visibility Wind Speed Wind Dir Waves Ship Positions

MSC Susanna

Last reported at 2016-Jul-25 09:31 UTC. Time now 2016-Jul-25 09:57 UTC.
Position N 50°05' W 002°25'.

Length 337 m; draft 11.9 m.

Type: Ship (hazmat cat A). MMSI: 371466000.

Date/timePositionNaut miles runAvg speedWind from/ knotsBaromVisibWave heightAir tempDewpointWater temp
2016-Jul-25 09:31N 50°05' W 002°25'6416.1
2016-Jul-25 05:33N 49°43' W 000°52'1615.8
2016-Jul-25 04:33N 49°38' W 000°29'1514.8
2016-Jul-25 03:33N 49°32' W 000°08'1211.6
2016-Jul-25 02:33N 49°28' E 000°08'0 0.1
2016-Jul-25 01:33N 49°28' E 000°09'0 0.0
2016-Jul-25 00:33N 49°28' E 000°08'0 0.0
2016-Jul-24 23:33N 49°28' E 000°09'0 0.0
2016-Jul-24 22:33N 49°28' E 000°08'0 0.0
2016-Jul-24 21:33N 49°28' E 000°09'0 0.0
2016-Jul-24 20:33N 49°28' E 000°09'0 0.0
2016-Jul-24 19:33N 49°28' E 000°09'0 0.4
2016-Jul-24 18:33N 49°27' E 000°09'1110.9
2016-Jul-24 17:33N 49°31' W 000°07'6 6.1
2016-Jul-24 16:34N 49°37' W 000°12'8 7.7
2016-Jul-24 15:33N 49°44' W 000°12'9 8.6
2016-Jul-24 14:33N 49°53' W 000°14'9 8.6
2016-Jul-24 13:33N 50°01' W 000°15'8 7.8
2016-Jul-24 12:34N 50°09' W 000°13'7 7.0
2016-Jul-24 11:34N 50°16' W 000°10'7 7.3
2016-Jul-24 10:33N 50°23' W 000°09'8 7.5
2016-Jul-24 09:32N 50°28' W 000°00'1212.1
2016-Jul-24 08:33N 50°33' E 000°17'9 9.3
2016-Jul-24 07:33N 50°36' E 000°31'10 9.6
2016-Jul-24 06:30N 50°41' E 000°45'1111.0
2016-Jul-24 05:30N 50°47' E 000°60'1310.8
2016-Jul-24 04:18N 50°54' E 001°17'7 9.2
2016-Jul-24 03:34N 50°59' E 001°24'10 9.6
2016-Jul-24 02:33N 51°06' E 001°34'1211.5
2016-Jul-24 01:34N 51°15' E 001°47'8 7.8
2016-Jul-24 00:34N 51°21' E 001°54'15 7.4
2016-Jul-23 22:34N 51°21' E 002°18'1110.5
2016-Jul-23 21:34N 51°23' E 002°34'1212.1
2016-Jul-23 20:33N 51°25' E 002°53'1918.7
2016-Jul-23 19:33N 51°25' E 003°23'1313.0
2016-Jul-23 18:34N 51°23' E 003°44'1211.6
2016-Jul-23 17:34N 51°23' E 004°03'10 9.6
2016-Jul-23 16:34N 51°19' E 004°16'1 0.5
2016-Jul-23 15:31N 51°18' E 004°16'0 0.0
2016-Jul-23 14:31N 51°18' E 004°16'0 0.0
2016-Jul-23 13:31N 51°18' E 004°16'0 0.0
2016-Jul-23 12:31N 51°18' E 004°16'0 0.0
2016-Jul-23 11:31N 51°18' E 004°16'0 0.0
2016-Jul-23 10:30N 51°18' E 004°16'0 0.0
2016-Jul-23 09:29N 51°18' E 004°16'0 0.0
2016-Jul-23 08:32N 51°18' E 004°16'0 0.0
2016-Jul-23 07:32N 51°18' E 004°16'0 0.0
2016-Jul-23 06:32N 51°18' E 004°16'0 0.0
2016-Jul-23 04:32N 51°18' E 004°16'0 0.0
2016-Jul-23 03:32N 51°18' E 004°16'0 0.0
2016-Jul-23 02:32N 51°18' E 004°16'0 0.0
2016-Jul-23 01:32N 51°18' E 004°16'0 0.0
2016-Jul-23 00:32N 51°18' E 004°16'0 0.0
2016-Jul-22 23:31N 51°18' E 004°16'0 0.0
2016-Jul-22 22:31N 51°18' E 004°16'0 0.0
2016-Jul-22 21:32N 51°18' E 004°16'0 0.0
2016-Jul-22 20:32N 51°18' E 004°16'0 0.0
2016-Jul-22 19:32N 51°18' E 004°16'0 0.0
2016-Jul-22 18:32N 51°18' E 004°16'0 0.0
2016-Jul-22 17:32N 51°18' E 004°16'0 0.0
2016-Jul-22 16:32N 51°18' E 004°16'0 0.0
2016-Jul-22 15:32N 51°18' E 004°16'0 0.0
2016-Jul-22 14:32N 51°18' E 004°16'0 0.0
2016-Jul-22 13:29N 51°18' E 004°16'0 0.0
2016-Jul-22 12:32N 51°18' E 004°16'0 0.0
2016-Jul-22 11:32N 51°18' E 004°16'0 0.0
2016-Jul-22 10:32N 51°18' E 004°16'0 0.0
2016-Jul-22 09:32N 51°18' E 004°16'0 0.0
2016-Jul-22 08:32N 51°18' E 004°16'0 0.0
2016-Jul-22 07:32N 51°18' E 004°16'0 0.0
2016-Jul-22 04:31N 51°18' E 004°16'0 0.0
2016-Jul-22 03:31N 51°18' E 004°16'0 0.0
2016-Jul-22 02:28N 51°18' E 004°16'0 0.0
2016-Jul-22 01:31N 51°18' E 004°16'0 0.0
2016-Jul-22 00:33N 51°18' E 004°16'2 2.3
2016-Jul-21 23:33N 51°20' E 004°16'1110.8
2016-Jul-21 22:33N 51°26' E 004°01'1211.6
2016-Jul-21 21:33N 51°23' E 003°43'10 9.6
2016-Jul-21 20:33N 51°25' E 003°28'1616.2
2016-Jul-21 19:33N 51°25' E 003°02'1414.2
2016-Jul-21 18:34N 51°38' E 003°11'1312.5
2016-Jul-21 17:33N 51°50' E 003°17'1515.4
2016-Jul-21 16:33N 52°05' E 003°21'1716.9
2016-Jul-21 15:33N 52°22' E 003°27'1716.7
2016-Jul-21 14:33N 52°38' E 003°31'1917.9
2016-Jul-21 13:31N 52°52' E 003°50'2118.8
2016-Jul-21 12:24N 53°07' E 004°16'2319.0
2016-Jul-21 11:13N 53°26' E 004°35'1419.5
2016-Jul-21 10:29N 53°33' E 004°56'1819.5
2016-Jul-21 09:33N 53°39' E 005°25'1818.4
2016-Jul-21 08:33N 53°45' E 005°54'1918.7
2016-Jul-21 07:33N 53°51' E 006°24'1919.0
2016-Jul-21 06:33N 53°54' E 006°56'2020.4
2016-Jul-21 05:33N 53°60' E 007°30'1918.7
2016-Jul-21 04:33N 54°01' E 008°01'1818.4
2016-Jul-21 03:33N 53°58' E 008°32'1515.5
2016-Jul-21 02:34N 53°51' E 008°55'1211.6
2016-Jul-21 01:34N 53°53' E 009°15'1212.4
2016-Jul-21 00:34N 53°43' E 009°28'1010.2
2016-Jul-20 23:34N 53°35' E 009°38'9 8.7
2016-Jul-20 22:34N 53°33' E 009°52'2 1.5
2016-Jul-20 21:33N 53°32' E 009°55'0 0.0
2016-Jul-20 20:33N 53°32' E 009°55'0 0.0
2016-Jul-20 19:33N 53°32' E 009°55'0 0.0
2016-Jul-20 18:33N 53°32' E 009°55'0 0.0
2016-Jul-20 17:33N 53°32' E 009°55'0 0.0
2016-Jul-20 16:33N 53°32' E 009°55'0 0.0
2016-Jul-20 15:33N 53°32' E 009°55'0 0.0
2016-Jul-20 14:33N 53°32' E 009°55'0 0.0
2016-Jul-20 13:33N 53°32' E 009°55'0 0.0
2016-Jul-20 12:33N 53°32' E 009°55'0 0.0
2016-Jul-20 11:33N 53°32' E 009°55'0 0.0
2016-Jul-20 10:33N 53°32' E 009°55'0 0.0
2016-Jul-20 09:33N 53°32' E 009°55'0 0.0
2016-Jul-20 08:33N 53°32' E 009°55'0 0.0
2016-Jul-20 07:33N 53°32' E 009°55'0 0.0
2016-Jul-20 06:33N 53°32' E 009°55'0 0.0
2016-Jul-20 05:33N 53°32' E 009°55'0 0.0
2016-Jul-20 04:33N 53°32' E 009°55'0 0.0
2016-Jul-20 03:33N 53°32' E 009°55'0 0.0
2016-Jul-20 02:33N 53°32' E 009°55'0 0.0
2016-Jul-20 01:33N 53°32' E 009°55'0 0.0
2016-Jul-20 00:32N 53°32' E 009°55'0 0.0
2016-Jul-19 23:32N 53°32' E 009°55'0 0.0
2016-Jul-19 22:32N 53°32' E 009°55'0 0.0
2016-Jul-19 21:32N 53°32' E 009°55'0 0.0
2016-Jul-19 20:32N 53°32' E 009°55'0 0.0
2016-Jul-19 19:32N 53°32' E 009°55'0 0.0
2016-Jul-19 18:32N 53°32' E 009°55'0 0.0
2016-Jul-19 17:32N 53°32' E 009°55'0 0.0
2016-Jul-19 16:32N 53°32' E 009°55'0 0.0
2016-Jul-19 15:32N 53°32' E 009°55'0 0.0
2016-Jul-19 14:32N 53°32' E 009°55'0 0.0
2016-Jul-19 13:32N 53°32' E 009°55'2 2.2
2016-Jul-19 12:33N 53°33' E 009°51'1010.2
2016-Jul-19 11:34N 53°36' E 009°35'1313.5
2016-Jul-19 10:33N 53°48' E 009°23'1211.5
2016-Jul-19 09:33N 53°52' E 009°05'1313.1
2016-Jul-19 08:33N 53°53' E 008°43'1414.1
2016-Jul-19 07:33N 53°59' E 008°22'3511.7
2016-Jul-19 04:33N 53°53' E 007°23'1414.0
2016-Jul-19 03:33N 53°50' E 007°00'1313.1
2016-Jul-19 02:34N 53°47' E 006°39'9 9.0
2016-Jul-19 01:34N 53°46' E 006°24'9 9.2
2016-Jul-19 00:34N 53°43' E 006°09'9 9.2
2016-Jul-18 23:33N 53°40' E 005°54'10 9.5
2016-Jul-18 22:34N 53°37' E 005°39'1010.0
2016-Jul-18 21:34N 53°33' E 005°23'1110.6
2016-Jul-18 20:34N 53°29' E 005°07'1110.5
2016-Jul-18 19:34N 53°25' E 004°50'9 9.3
2016-Jul-18 18:34N 53°18' E 004°40'1010.5
2016-Jul-18 17:34N 53°09' E 004°31'1110.6
2016-Jul-18 16:33N 53°00' E 004°22'1111.0
2016-Jul-18 15:34N 52°50' E 004°15'1010.5
2016-Jul-18 14:34N 52°42' E 004°04'1010.4
2016-Jul-18 13:34N 52°35' E 003°51'1010.3
2016-Jul-18 12:34N 52°28' E 003°40'10 9.8
2016-Jul-18 11:33N 52°21' E 003°28'9 9.1
2016-Jul-18 10:34N 52°14' E 003°18'8 8.4
2016-Jul-18 09:33N 52°08' E 003°09'8 7.8
2016-Jul-18 08:34N 52°02' E 002°60'7 7.4
2016-Jul-18 07:33N 51°58' E 002°50'8 8.5
2016-Jul-18 06:33N 51°56' E 002°37'9 9.2
2016-Jul-18 05:34N 51°54' E 002°22'10 9.8
2016-Jul-18 04:33N 51°52' E 002°07'1010.2
2016-Jul-18 03:34N 51°48' E 001°51'1010.1
2016-Jul-18 02:34N 51°52' E 001°36'1211.6
2016-Jul-18 01:34N 51°56' E 001°19'2 2.1
2016-Jul-18 00:34N 51°58' E 001°17'0 0.0
2016-Jul-17 23:34N 51°58' E 001°17'0 0.0
2016-Jul-17 22:34N 51°58' E 001°17'0 0.0
2016-Jul-17 21:34N 51°58' E 001°17'0 0.0
2016-Jul-17 20:34N 51°58' E 001°17'0 0.0
2016-Jul-17 19:33N 51°58' E 001°17'0 0.0
2016-Jul-17 18:34N 51°58' E 001°17'0 0.0
2016-Jul-17 17:34N 51°58' E 001°17'0 0.0
2016-Jul-17 16:34N 51°58' E 001°17'0 0.0
2016-Jul-17 15:34N 51°58' E 001°17'0 0.0
2016-Jul-17 14:34N 51°58' E 001°17'0 0.0
2016-Jul-17 13:34N 51°58' E 001°17'0 0.0
2016-Jul-17 12:34N 51°58' E 001°17'0 0.0
2016-Jul-17 11:34N 51°58' E 001°17'0 0.0
2016-Jul-17 10:34N 51°58' E 001°17'0 0.0
2016-Jul-17 09:34N 51°58' E 001°17'0 0.0
2016-Jul-17 08:34N 51°58' E 001°17'0 0.0
2016-Jul-17 07:34N 51°58' E 001°17'0 0.0
2016-Jul-17 06:34N 51°58' E 001°17'0 0.0
2016-Jul-17 04:34N 51°58' E 001°17'0 0.0
2016-Jul-17 03:33N 51°58' E 001°17'0 0.0
2016-Jul-17 02:34N 51°58' E 001°17'0 0.0
2016-Jul-17 01:33N 51°58' E 001°17'0 0.0
2016-Jul-17 00:34N 51°58' E 001°17'0 0.0
2016-Jul-16 23:34N 51°58' E 001°17'0 0.0
2016-Jul-16 22:34N 51°58' E 001°17'0 0.0
2016-Jul-16 21:34N 51°58' E 001°17'0 0.0
2016-Jul-16 20:34N 51°58' E 001°17'1 1.1
2016-Jul-16 19:34N 51°57' E 001°19'10 9.6
2016-Jul-16 18:33N 51°55' E 001°34'9 9.5
2016-Jul-16 17:33N 51°51' E 001°48'1212.4
2016-Jul-16 16:33N 51°38' E 001°49'1413.8
2016-Jul-16 15:34N 51°25' E 001°46'1515.1
2016-Jul-16 14:34N 51°10' E 001°41'1313.0
2016-Jul-16 13:33N 50°59' E 001°30'1717.1
2016-Jul-16 12:33N 50°43' E 001°20'3516.8
2016-Jul-16 10:27N 50°25' E 000°32'1517.1
2016-Jul-16 09:33N 50°22' E 000°09'1717.4
2016-Jul-16 08:33N 50°17' W 000°18'1817.9
2016-Jul-16 07:33N 50°12' W 000°44'1918.8
2016-Jul-16 06:33N 50°08' W 001°13'3919.7
2016-Jul-16 04:33N 49°57' W 002°12'1919.0
2016-Jul-16 03:33N 49°51' W 002°40'1818.2
2016-Jul-16 02:33N 49°44' W 003°06'1818.1
2016-Jul-16 01:33N 49°35' W 003°30'1818.0
2016-Jul-16 00:33N 49°25' W 003°54'1817.9
2016-Jul-15 23:33N 49°16' W 004°17'1817.6
2016-Jul-15 22:32N 49°07' W 004°41'1717.4
2016-Jul-15 21:33N 48°59' W 005°04'1717.1
2016-Jul-15 20:33N 48°51' W 005°27'1716.8
2016-Jul-15 19:33N 48°39' W 005°44'3316.7
2016-Jul-15 17:33N 48°09' W 006°06'1716.7
2016-Jul-15 16:31N 47°53' W 006°18'  

Dump ship's entire track history